Time;durP1;ratioP1;P1;durP2;ratioP2;P2;SDS_P1;SDS_P2;PMS_P1;PMS_P2;Temp;Humidity;BMP_temperature;BMP_pressure;BME280_temperature;BME280_humidity;BME280_pressure;Samples;Min_cycle;Max_cycle;Signal;HPM_P1;HPM_P2
2022/08/13 00:00:45;;;;;;;;;;;;;;;;;;;;;
2022/08/13 00:03:29;;;;;;;1.50;1.40;;;26.80;39.20;;;;;;6024958;23;20761;-83
2022/08/13 00:06:18;;;;;;;;;;;;;;;;;;;;;
2022/08/13 00:08:48;;;;;;;1.70;1.60;;;26.80;39.10;;;;;;6141632;23;20392;-83
2022/08/13 00:14:18;;;;;;;1.80;1.50;;;26.90;39.30;;;;;;6140792;23;20361;-84
2022/08/13 00:17:20;;;;;;;1.77;1.63;;;26.80;39.20;;;;;;6139943;23;20929;-84
2022/08/13 00:19:59;;;;;;;2.00;1.70;;;26.80;39.20;;;;;;6118432;23;20428;-84
2022/08/13 00:22:39;;;;;;;1.93;1.50;;;26.80;39.20;;;;;;6139874;23;20385;-84
2022/08/13 00:25:12;;;;;;;1.63;1.53;;;26.80;39.20;;;;;;6139946;23;20384;-84
2022/08/13 00:27:59;;;;;;;1.50;1.40;;;26.80;39.20;;;;;;6141014;23;20457;-84
2022/08/13 00:30:38;;;;;;;1.87;1.73;;;26.80;39.20;;;;;;6140977;23;20369;-84
2022/08/13 00:33:14;;;;;;;1.60;1.43;;;26.80;39.20;;;;;;6139189;23;20372;-84
2022/08/13 00:36:00;;;;;;;1.67;1.57;;;26.80;39.20;;;;;;6140907;23;20500;-84
2022/08/13 00:38:52;;;;;;;2.27;1.60;;;26.80;39.20;;;;;;6118399;23;20451;-84
2022/08/13 00:44:45;;;;;;;2.67;1.80;;;26.80;39.20;;;;;;6053474;23;20367;-84
2022/08/13 00:50:13;;;;;;;1.40;1.30;;;26.70;39.20;;;;;;6052135;23;20479;-84
2022/08/13 00:52:49;;;;;;;1.87;1.60;;;26.70;39.30;;;;;;6027616;23;20407;-84
2022/08/13 00:55:24;;;;;;;1.70;1.60;;;26.70;39.30;;;;;;6052017;23;20395;-83
2022/08/13 00:57:58;;;;;;;1.67;1.57;;;26.70;39.30;;;;;;6028920;23;20454;-83
2022/08/13 01:00:26;;;;;;;1.80;1.70;;;26.70;39.30;;;;;;6051838;23;20399;-84
2022/08/13 01:02:55;;;;;;;1.60;1.50;;;26.70;39.30;;;;;;6053001;23;20416;-83
2022/08/13 01:05:28;;;;;;;1.70;1.57;;;26.70;39.30;;;;;;6051724;23;20513;-83
2022/08/13 01:07:56;;;;;;;1.70;1.60;;;26.70;39.30;;;;;;6028399;23;20386;-84
2022/08/13 01:13:52;;;;;;;2.67;1.53;;;26.70;39.30;;;;;;6051956;23;20412;-83
2022/08/13 01:16:34;;;;;;;1.73;1.63;;;26.70;39.30;;;;;;6028170;23;20484;-84
2022/08/13 01:19:11;;;;;;;1.80;1.70;;;26.70;39.30;;;;;;6111469;23;20520;-84
2022/08/13 01:22:11;;;;;;;1.77;1.67;;;26.70;39.40;;;;;;6140994;23;20420;-84
2022/08/13 01:24:52;;;;;;;1.77;1.67;;;26.70;39.40;;;;;;6143984;23;20385;-86
2022/08/13 01:27:37;;;;;;;1.90;1.63;;;26.70;39.40;;;;;;6169273;23;20412;-86
2022/08/13 01:30:27;;;;;;;1.70;1.60;;;26.70;39.40;;;;;;6145786;23;20389;-86
2022/08/13 01:33:00;;;;;;;1.97;1.70;;;26.70;39.40;;;;;;6142549;23;20381;-86
2022/08/13 01:35:28;;;;;;;2.20;2.00;;;26.70;39.40;;;;;;6121353;23;20489;-86
2022/08/13 01:38:14;;;;;;;;;;;;;;;;;;;;;
2022/08/13 01:40:58;;;;;;;2.10;1.83;;;26.70;39.40;;;;;;6145538;23;20388;-85
2022/08/13 01:43:42;;;;;;;1.80;1.70;;;26.70;39.40;;;;;;6145110;23;20377;-86
2022/08/13 01:46:18;;;;;;;1.77;1.67;;;26.70;39.40;;;;;;6144067;23;20385;-86
2022/08/13 01:51:55;;;;;;;1.80;1.70;;;26.60;39.40;;;;;;6146149;23;20392;-86
2022/08/13 01:57:43;;;;;;;2.73;1.90;;;26.60;39.40;;;;;;6145308;23;20435;-86
2022/08/13 02:03:38;;;;;;;1.80;1.70;;;26.60;39.50;;;;;;6144701;23;20404;-86
2022/08/13 02:06:23;;;;;;;2.30;2.00;;;26.60;39.50;;;;;;6144113;23;20400;-86
2022/08/13 02:08:59;;;;;;;1.70;1.60;;;26.60;39.50;;;;;;6144712;23;20377;-86
2022/08/13 02:11:48;;;;;;;;;;;;;;;;;;;;;
2022/08/13 02:17:33;;;;;;;1.90;1.70;;;26.60;39.50;;;;;;6140484;23;20388;-86
2022/08/13 02:20:04;;;;;;;2.13;1.67;;;26.60;39.50;;;;;;6143119;23;20404;-86
2022/08/13 02:22:37;;;;;;;2.40;2.20;;;26.60;39.50;;;;;;6142978;23;20846;-86
2022/08/13 02:25:08;;;;;;;2.00;1.90;;;26.60;39.50;;;;;;6144234;23;20648;-86
2022/08/13 02:27:55;;;;;;;2.17;1.97;;;26.60;39.60;;;;;;6143515;23;20389;-86
2022/08/13 02:30:41;;;;;;;2.00;1.80;;;26.60;39.60;;;;;;6143409;23;20440;-86
2022/08/13 02:33:13;;;;;;;2.93;1.93;;;26.60;39.60;;;;;;6119949;23;20393;-86
2022/08/13 02:35:58;;;;;;;1.87;1.77;;;26.60;39.60;;;;;;6142748;23;20385;-86
2022/08/13 02:38:57;;;;;;;1.93;1.80;;;26.60;39.60;;;;;;6146378;23;20423;-86
2022/08/13 02:41:39;;;;;;;2.17;1.97;;;26.60;39.60;;;;;;6144500;23;20441;-86
2022/08/13 02:44:25;;;;;;;1.77;1.67;;;26.60;39.60;;;;;;6142403;23;20435;-86
2022/08/13 02:47:23;;;;;;;;;;;;;;;;;;;;;
2022/08/13 02:50:20;;;;;;;2.20;1.47;;;26.60;39.60;;;;;;6141503;23;20624;-86
2022/08/13 02:52:55;;;;;;;1.83;1.73;;;26.60;39.60;;;;;;6144876;23;20380;-85
2022/08/13 02:55:43;;;;;;;2.10;1.90;;;26.50;39.60;;;;;;6145188;23;20818;-85
2022/08/13 03:01:39;;;;;;;2.47;1.83;;;26.60;39.60;;;;;;6028508;23;20383;-85
2022/08/13 03:04:10;;;;;;;2.70;1.97;;;26.50;39.60;;;;;;6004133;23;20380;-86
2022/08/13 03:06:49;;;;;;;1.87;1.77;;;26.50;39.60;;;;;;6004196;23;20429;-86
2022/08/13 03:09:24;;;;;;;1.90;1.70;;;26.50;39.60;;;;;;6003623;23;20412;-86
2022/08/13 03:12:01;;;;;;;2.50;2.10;;;26.50;39.60;;;;;;5980409;23;20418;-85
2022/08/13 03:14:45;;;;;;;2.10;1.90;;;26.50;39.60;;;;;;6003882;23;20391;-85
2022/08/13 03:17:44;;;;;;;1.70;1.60;;;26.50;39.60;;;;;;6027144;23;20816;-86
2022/08/13 03:20:17;;;;;;;1.83;1.73;;;26.50;39.60;;;;;;6028309;23;20479;-84
2022/08/13 03:23:07;;;;;;;2.10;1.90;;;26.50;39.60;;;;;;6005101;23;20459;-86
2022/08/13 03:26:17;;;;;;;1.97;1.77;;;26.50;39.60;;;;;;6004653;23;20384;-86
2022/08/13 03:29:00;;;;;;;1.60;1.50;;;26.50;39.70;;;;;;6022441;23;20376;-86
2022/08/13 03:31:44;;;;;;;1.93;1.53;;;26.50;39.60;;;;;;6006116;23;20839;-86
2022/08/13 03:34:20;;;;;;;1.90;1.70;;;26.50;39.60;;;;;;6005977;23;20377;-86
2022/08/13 03:36:53;;;;;;;2.07;1.87;;;26.50;39.70;;;;;;6005878;23;20384;-86
2022/08/13 03:39:32;;;;;;;1.83;1.73;;;26.50;39.60;;;;;;6146900;23;20400;-86
2022/08/13 03:42:09;;;;;;;1.80;1.70;;;26.50;39.60;;;;;;6145081;23;20387;-86
2022/08/13 03:45:07;;;;;;;2.10;1.70;;;26.50;39.60;;;;;;6142590;23;20373;-86
2022/08/13 03:47:57;;;;;;;4.13;1.80;;;26.50;39.60;;;;;;6143826;23;20621;-86
2022/08/13 03:50:32;;;;;;;1.90;1.80;;;26.50;39.70;;;;;;6144534;23;20373;-86
2022/08/13 03:53:36;;;;;;;2.80;2.57;;;26.50;39.70;;;;;;6145566;23;20400;-86
2022/08/13 03:56:15;;;;;;;1.90;1.80;;;26.50;39.60;;;;;;6132711;23;20404;-86
2022/08/13 03:59:19;;;;;;;;;;;;;;;;;;;;;
2022/08/13 04:02:01;;;;;;;2.20;2.03;;;26.50;39.70;;;;;;6146173;23;20365;-86
2022/08/13 04:04:50;;;;;;;1.87;1.70;;;26.50;39.70;;;;;;6144308;23;20381;-86
2022/08/13 04:10:46;;;;;;;2.50;2.30;;;26.50;39.70;;;;;;6145560;23;20360;-86
2022/08/13 04:13:55;;;;;;;1.97;1.73;;;26.50;39.70;;;;;;6143129;23;20807;-86
2022/08/13 04:16:25;;;;;;;2.53;2.33;;;26.40;39.60;;;;;;6143260;23;20404;-86
2022/08/13 04:22:23;;;;;;;2.40;2.20;;;26.50;39.70;;;;;;6144411;23;20437;-86
2022/08/13 04:25:00;;;;;;;2.87;2.07;;;26.40;39.70;;;;;;6143927;23;20731;-87
2022/08/13 04:27:42;;;;;;;;;;;;;;;;;;;;;
2022/08/13 04:30:35;;;;;;;2.00;1.80;;;26.40;39.70;;;;;;6146247;23;20381;-86
2022/08/13 04:33:36;;;;;;;3.00;2.80;;;26.40;39.70;;;;;;6145168;23;20404;-85
2022/08/13 04:36:20;;;;;;;2.37;2.17;;;26.40;39.70;;;;;;6145676;23;20417;-85
2022/08/13 04:39:10;;;;;;;2.33;1.87;;;26.40;39.70;;;;;;6117280;23;20421;-85
2022/08/13 04:42:10;;;;;;;;;;;;;;;;;;;;;
2022/08/13 04:44:43;;;;;;;2.67;2.40;;;26.40;39.70;;;;;;6136689;23;20376;-86
2022/08/13 04:47:23;;;;;;;;;;;;;;;;;;;;;
2022/08/13 04:49:54;;;;;;;2.57;1.97;;;26.40;39.80;;;;;;6144090;23;20361;-86
2022/08/13 04:52:40;;;;;;;2.10;1.90;;;26.40;40.30;;;;;;6143049;23;20631;-86
2022/08/13 04:55:34;;;;;;;;;;;;;;;;;;;;;
2022/08/13 04:58:14;;;;;;;2.07;1.97;;;26.40;39.70;;;;;;6143212;23;20449;-86
2022/08/13 05:00:53;;;;;;;3.53;1.83;;;26.40;39.70;;;;;;6142298;23;20407;-86
2022/08/13 05:03:32;;;;;;;1.90;1.80;;;26.40;39.70;;;;;;6142244;23;20369;-86
2022/08/13 05:06:06;;;;;;;2.60;1.90;;;26.40;39.70;;;;;;6113274;23;20378;-86
2022/08/13 05:09:19;;;;;;;2.17;1.97;;;26.40;39.70;;;;;;6087866;23;20395;-86
2022/08/13 05:15:29;;;;;;;2.40;2.20;;;26.40;39.70;;;;;;6028056;23;20352;-86
2022/08/13 05:18:14;;;;;;;3.90;2.00;;;26.40;39.70;;;;;;6032171;23;20889;-86
2022/08/13 05:21:03;;;;;;;2.30;2.10;;;26.40;39.70;;;;;;6030652;23;20376;-86
2022/08/13 05:23:56;;;;;;;2.33;2.13;;;26.40;39.70;;;;;;6054745;23;20721;-86
2022/08/13 05:26:28;;;;;;;1.87;1.77;;;26.40;39.70;;;;;;6010561;23;20380;-86
2022/08/13 05:29:13;;;;;;;1.93;1.83;;;26.40;39.80;;;;;;6030021;23;20376;-86
2022/08/13 05:31:56;;;;;;;2.10;2.00;;;26.40;39.70;;;;;;6054462;23;20902;-86
2022/08/13 05:41:06;;;;;;;2.23;2.03;;;26.40;39.80;;;;;;6054448;23;20416;-86
2022/08/13 05:43:45;;;;;;;2.43;2.23;;;26.40;39.80;;;;;;6007974;23;20447;-85
2022/08/13 05:46:20;;;;;;;2.07;1.97;;;26.40;39.80;;;;;;6031585;23;20375;-85
2022/08/13 05:48:58;;;;;;;2.80;2.50;;;26.40;39.80;;;;;;6099440;23;20392;-84
2022/08/13 05:51:37;;;;;;;2.37;2.17;;;26.40;39.90;;;;;;6140005;23;20381;-84
2022/08/13 05:54:59;;;;;;;;;;;;;;;;;;;;;
2022/08/13 05:57:40;;;;;;;2.30;2.10;;;26.40;39.90;;;;;;6143638;23;20444;-84
2022/08/13 06:03:29;;;;;;;1.83;1.73;;;26.40;39.90;;;;;;6143295;23;20361;-84
2022/08/13 06:06:04;;;;;;;2.20;2.00;;;26.40;39.90;;;;;;6136840;23;20380;-84
2022/08/13 06:09:00;;;;;;;2.20;2.00;;;26.40;39.90;;;;;;6141682;23;20388;-84
2022/08/13 06:12:01;;;;;;;;;;;;;;;;;;;;;
2022/08/13 06:14:39;;;;;;;2.50;2.17;;;26.40;39.90;;;;;;6141856;23;20389;-84
2022/08/13 06:17:15;;;;;;;2.33;2.13;;;26.40;39.90;;;;;;6142181;23;20423;-84
2022/08/13 06:20:09;;;;;;;2.27;2.07;;;26.40;39.90;;;;;;6142267;23;20383;-84
2022/08/13 06:23:12;;;;;;;2.20;2.10;;;26.40;39.90;;;;;;6054343;23;20387;-84
2022/08/13 06:25:52;;;;;;;2.27;2.07;;;26.40;39.90;;;;;;6030754;23;20423;-84
2022/08/13 06:28:52;;;;;;;2.70;2.47;;;26.40;39.90;;;;;;6054362;23;20718;-84
2022/08/13 06:31:34;;;;;;;2.50;2.30;;;26.40;39.90;;;;;;6054113;23;20423;-84
2022/08/13 06:34:25;;;;;;;2.60;2.40;;;26.40;39.90;;;;;;6055069;23;20451;-84
2022/08/13 06:37:28;;;;;;;;;;;;;;;;;;;;;
2022/08/13 06:40:40;;;;;;;2.57;2.37;;;26.40;39.90;;;;;;6051342;23;20383;-84
2022/08/13 06:46:51;;;;;;;2.30;2.10;;;26.40;39.90;;;;;;6055368;23;20355;-84
2022/08/13 06:49:58;;;;;;;2.00;1.90;;;26.40;39.90;;;;;;6032460;23;20407;-83
2022/08/13 06:52:45;;;;;;;2.30;2.10;;;26.40;40.00;;;;;;6055274;23;20427;-84
2022/08/13 06:58:58;;;;;;;2.57;2.37;;;26.40;40.00;;;;;;6062473;23;20694;-84
2022/08/13 07:02:02;;;;;;;2.40;2.20;;;26.40;40.00;;;;;;6143250;23;20388;-82
2022/08/13 07:05:06;;;;;;;2.60;2.40;;;26.40;40.00;;;;;;6141024;23;20457;-82
2022/08/13 07:08:18;;;;;;;2.40;2.20;;;26.40;40.00;;;;;;6128649;23;20396;-83
2022/08/13 07:11:25;;;;;;;2.37;2.17;;;26.40;40.00;;;;;;6142079;23;20394;-84
2022/08/13 07:14:22;;;;;;;2.30;2.10;;;26.40;40.00;;;;;;6142867;23;20384;-86
2022/08/13 07:17:16;;;;;;;2.80;2.60;;;26.40;40.10;;;;;;6143160;23;20387;-85
2022/08/13 07:34:05;;;;;;;;;;;;;;;;;;;;;
2022/08/13 07:43:06;;;;;;;2.60;2.27;;;26.50;40.20;;;;;;5984560;24;20385;-85
2022/08/13 07:46:18;;;;;;;2.80;1.90;;;26.40;40.10;;;;;;5977376;24;20369;-86
2022/08/13 07:49:01;;;;;;;2.30;2.10;;;26.50;40.20;;;;;;5976963;24;20373;-86
2022/08/13 07:51:43;;;;;;;4.60;2.20;;;26.50;40.10;;;;;;5977373;24;20400;-86
2022/08/13 07:54:40;;;;;;;2.17;2.00;;;26.50;40.20;;;;;;5977131;24;20381;-86
2022/08/13 08:04:34;;;;;;;2.67;2.33;;;26.50;40.10;;;;;;6057436;23;20359;-86
2022/08/13 08:07:35;;;;;;;2.70;2.50;;;26.50;40.20;;;;;;6119321;23;20404;-86
2022/08/13 08:10:10;;;;;;;2.10;2.00;;;26.50;40.20;;;;;;6144766;23;20389;-86
2022/08/13 08:12:46;;;;;;;2.40;2.20;;;26.50;40.20;;;;;;6144853;23;20377;-86
2022/08/13 08:18:58;;;;;;;2.53;2.10;;;26.60;40.90;;;;;;6146281;23;20846;-86
2022/08/13 08:28:13;;;;;;;2.37;2.17;;;26.60;40.20;;;;;;6057355;23;20412;-84
2022/08/13 08:31:15;;;;;;;2.43;2.23;;;26.60;40.20;;;;;;6056822;23;20380;-86
2022/08/13 08:34:01;;;;;;;2.50;2.30;;;26.60;40.20;;;;;;6034562;23;20406;-85
2022/08/13 08:43:46;;;;;;;2.50;2.30;;;26.60;40.10;;;;;;6055744;23;20375;-86
2022/08/13 08:49:52;;;;;;;2.90;2.07;;;26.60;40.10;;;;;;5998618;24;20384;-85
2022/08/13 08:56:06;;;;;;;2.00;1.90;;;26.60;40.10;;;;;;6068778;23;20390;-86
2022/08/13 08:59:51;;;;;;;;;;;;;;;;;;;;;
2022/08/13 09:02:34;;;;;;;2.23;2.03;;;26.60;40.10;;;;;;5935316;23;20372;-84
2022/08/13 09:05:56;;;;;;;2.40;2.20;;;26.60;40.10;;;;;;6085788;23;20418;-85
2022/08/13 09:15:40;;;;;;;;;;;;;;;;;;;;;
2022/08/13 09:18:23;;;;;;;2.00;1.90;;;26.60;40.10;;;;;;5870541;24;20453;-86
2022/08/13 09:21:21;;;;;;;2.00;1.90;;;26.60;40.10;;;;;;5867521;24;20388;-86
2022/08/13 09:24:14;;;;;;;;;;;;;;;;;;;;;
2022/08/13 09:27:35;;;;;;;2.50;2.07;;;26.70;40.00;;;;;;5910120;24;20384;-84
2022/08/13 09:30:37;;;;;;;2.40;2.20;;;26.70;40.00;;;;;;5889698;24;20449;-85
2022/08/13 09:33:09;;;;;;;2.60;2.40;;;26.70;40.00;;;;;;5916941;24;20376;-85
2022/08/13 09:39:28;;;;;;;2.10;2.00;;;26.70;40.00;;;;;;5916463;24;20432;-85
2022/08/13 09:45:04;;;;;;;2.03;1.93;;;26.70;40.00;;;;;;5916544;24;20436;-85
2022/08/13 09:47:43;;;;;;;2.83;2.63;;;26.70;40.00;;;;;;5956617;23;20460;-85
2022/08/13 10:00:48;;;;;;;2.63;2.43;;;26.70;39.90;;;;;;6080291;23;20885;-83
2022/08/13 10:10:42;;;;;;;;;;;;;;;;;;;;;
2022/08/13 10:31:24;;;;;;;;;;;;;;;;;;;;;
2022/08/13 10:37:46;;;;;;;2.23;2.03;;;26.80;39.90;;;;;;5804691;24;20430;-83
2022/08/13 10:40:44;;;;;;;;;;;;;;;;;;;;;
2022/08/13 10:43:23;;;;;;;2.00;1.90;;;26.80;39.80;;;;;;5848372;24;20410;-82
2022/08/13 10:46:16;;;;;;;2.30;2.10;;;26.80;39.80;;;;;;5890788;24;20403;-82
2022/08/13 10:49:20;;;;;;;2.10;1.90;;;26.80;39.80;;;;;;5911620;24;20388;-82
2022/08/13 11:02:38;;;;;;;1.90;1.80;;;26.80;39.70;;;;;;5942385;24;20379;-82
2022/08/13 11:05:41;;;;;;;2.43;2.17;;;26.80;39.70;;;;;;5997928;23;20409;-82
2022/08/13 11:21:33;;;;;;;1.90;1.80;;;26.80;39.60;;;;;;5995594;23;20426;-82
2022/08/13 11:24:19;;;;;;;2.90;2.50;;;26.80;39.60;;;;;;5996031;23;20389;-82
2022/08/13 11:27:05;;;;;;;1.93;1.83;;;26.80;39.60;;;;;;5976260;24;20397;-83
2022/08/13 11:29:45;;;;;;;;;;;;;;;;;;;;;
2022/08/13 11:33:08;;;;;;;1.90;1.80;;;26.80;39.60;;;;;;5996461;24;20409;-82
2022/08/13 11:41:58;;;;;;;2.20;2.10;;;26.90;39.50;;;;;;6052699;23;20378;-83
2022/08/13 11:47:49;;;;;;;1.90;1.70;;;26.90;39.50;;;;;;6088400;23;20400;-84
2022/08/13 11:50:18;;;;;;;1.87;1.73;;;26.90;39.50;;;;;;6139518;23;20385;-83
2022/08/13 11:52:49;;;;;;;2.20;2.00;;;26.90;39.60;;;;;;6140160;23;20385;-82
2022/08/13 11:55:21;;;;;;;2.03;1.83;;;26.90;39.50;;;;;;6139826;23;20444;-83
2022/08/13 11:58:17;;;;;;;2.10;2.00;;;26.90;40.00;;;;;;6139996;23;20420;-82
2022/08/13 12:07:13;;;;;;;2.10;2.00;;;26.90;39.50;;;;;;6108700;23;20445;-83
2022/08/13 12:10:47;;;;;;;2.60;2.17;;;26.90;39.50;;;;;;6138941;23;20381;-83
2022/08/13 12:13:19;;;;;;;2.40;2.20;;;26.90;39.40;;;;;;6057233;23;20422;-83
2022/08/13 12:15:58;;;;;;;2.20;2.10;;;26.90;39.40;;;;;;6139631;23;20795;-83
2022/08/13 12:18:35;;;;;;;1.87;1.77;;;26.90;39.40;;;;;;6140596;23;20451;-83
2022/08/13 12:21:07;;;;;;;2.00;1.90;;;26.90;39.40;;;;;;6140468;23;20377;-82
2022/08/13 12:23:48;;;;;;;2.20;2.00;;;26.90;39.40;;;;;;6139947;23;20373;-82
2022/08/13 12:26:33;;;;;;;1.93;1.83;;;26.90;39.40;;;;;;6140236;23;20385;-83
2022/08/13 12:29:05;;;;;;;2.20;2.00;;;26.90;39.40;;;;;;6139833;23;20471;-83
2022/08/13 12:31:32;;;;;;;2.30;2.10;;;26.90;39.40;;;;;;6139858;23;20439;-82
2022/08/13 12:34:22;;;;;;;1.83;1.73;;;26.90;39.40;;;;;;6139987;23;20391;-83
2022/08/13 12:37:35;;;;;;;2.40;2.20;;;26.90;39.30;;;;;;6140428;23;20384;-83
2022/08/13 12:40:26;;;;;;;1.80;1.70;;;26.90;39.30;;;;;;6142662;23;20377;-84
2022/08/13 12:46:33;;;;;;;;;;;;;;;;;;;;;
2022/08/13 13:01:54;;;;;;;2.33;2.13;;;26.90;39.30;;;;;;6140798;23;20796;-84
2022/08/13 13:04:43;;;;;;;2.33;2.13;;;26.90;39.30;;;;;;6134651;23;20385;-84
2022/08/13 13:13:38;;;;;;;2.30;2.10;;;27.00;39.30;;;;;;6141194;23;20606;-83
2022/08/13 13:16:09;;;;;;;2.40;2.20;;;26.90;39.30;;;;;;6131160;23;20640;-83
2022/08/13 13:25:13;;;;;;;2.20;2.00;;;27.00;39.30;;;;;;6140061;23;20341;-83
2022/08/13 13:27:41;;;;;;;2.50;2.30;;;26.90;39.30;;;;;;6138959;23;20787;-83
2022/08/13 13:43:17;;;;;;;2.40;2.20;;;26.90;39.20;;;;;;6079930;23;20411;-83
2022/08/13 13:45:53;;;;;;;2.57;2.37;;;26.90;39.20;;;;;;6082028;23;20391;-82
2022/08/13 13:49:12;;;;;;;2.70;1.73;;;26.90;39.20;;;;;;6047783;23;20506;-82
2022/08/13 13:51:48;;;;;;;2.10;2.00;;;27.00;39.20;;;;;;6057502;23;20387;-82
2022/08/13 13:54:29;;;;;;;2.47;2.27;;;27.00;39.20;;;;;;6081950;23;20423;-82
2022/08/13 14:03:37;;;;;;;2.57;2.37;;;27.00;39.20;;;;;;5968078;23;20383;-83
2022/08/13 14:06:08;;;;;;;2.50;2.30;;;27.00;39.20;;;;;;5944160;24;20391;-83
2022/08/13 14:08:45;;;;;;;3.13;2.93;;;27.00;39.20;;;;;;5966342;24;20410;-83
2022/08/13 14:11:40;;;;;;;;;;;;;;;;;;;;;
2022/08/13 14:14:12;;;;;;;2.57;2.37;;;27.00;39.80;;;;;;5995230;24;20374;-83
2022/08/13 14:26:47;;;;;;;2.70;2.20;;;27.00;39.20;;;;;;5911192;24;20387;-82
2022/08/13 14:29:35;;;;;;;2.77;2.57;;;27.00;39.20;;;;;;5911383;24;20380;-83
2022/08/13 14:32:25;;;;;;;4.03;2.77;;;27.00;39.20;;;;;;5891265;24;20387;-83
2022/08/13 14:35:07;;;;;;;2.70;2.50;;;27.00;39.20;;;;;;5914909;24;20364;-83
2022/08/13 14:37:48;;;;;;;3.03;2.83;;;27.00;39.20;;;;;;6002425;23;20379;-84
2022/08/13 14:40:40;;;;;;;2.90;2.47;;;27.00;39.20;;;;;;6028390;23;20436;-82
2022/08/13 14:43:13;;;;;;;2.87;2.67;;;27.00;39.20;;;;;;6026486;23;20387;-83
2022/08/13 14:45:44;;;;;;;2.57;2.37;;;27.00;39.20;;;;;;6030552;23;20468;-83
2022/08/13 14:55:21;;;;;;;2.67;2.47;;;27.00;39.20;;;;;;6082958;23;20365;-85
2022/08/13 15:04:47;;;;;;;2.53;2.30;;;27.00;39.20;;;;;;5997546;23;20406;-83
2022/08/13 15:07:20;;;;;;;2.90;2.70;;;27.00;39.20;;;;;;5997885;24;20417;-83
2022/08/13 15:09:58;;;;;;;2.53;2.33;;;27.00;39.20;;;;;;5974111;24;20384;-83
2022/08/13 15:19:24;;;;;;;3.27;2.97;;;27.00;39.20;;;;;;5998043;24;20459;-83
2022/08/13 15:22:02;;;;;;;3.27;2.97;;;27.00;39.30;;;;;;5974666;24;20417;-82
2022/08/13 15:24:33;;;;;;;3.60;3.30;;;27.00;39.40;;;;;;5975557;24;20464;-82
2022/08/13 15:27:02;;;;;;;2.90;2.70;;;27.00;39.30;;;;;;5978152;23;20389;-83
2022/08/13 15:29:34;;;;;;;3.30;2.90;;;27.10;39.40;;;;;;6058536;23;20398;-83
2022/08/13 15:32:37;;;;;;;3.20;2.67;;;27.10;39.40;;;;;;6059242;23;20398;-83
2022/08/13 15:35:28;;;;;;;;;;;;;;;;;;;;;
2022/08/13 15:38:30;;;;;;;2.83;2.63;;;27.10;39.40;;;;;;6120931;23;20451;-82
2022/08/13 15:41:05;;;;;;;3.00;2.70;;;27.10;39.40;;;;;;6143362;23;20624;-83
2022/08/13 15:49:33;;;;;;;3.20;2.90;;;27.10;39.40;;;;;;6136345;23;20411;-82
2022/08/13 15:55:21;;;;;;;3.03;2.83;;;27.10;39.40;;;;;;6045418;23;20392;-82
2022/08/13 15:58:21;;;;;;;3.00;2.63;;;27.10;39.40;;;;;;6140381;23;20451;-82
2022/08/13 16:00:59;;;;;;;3.40;3.10;;;27.10;39.40;;;;;;6141464;23;20381;-83
2022/08/13 16:03:49;;;;;;;3.00;2.80;;;27.10;39.50;;;;;;6140376;23;20391;-83
2022/08/13 16:06:47;;;;;;;3.60;3.30;;;27.10;39.50;;;;;;6142374;23;20458;-86
2022/08/13 16:09:50;;;;;;;3.60;3.30;;;27.10;39.50;;;;;;6143759;23;20385;-84
2022/08/13 16:13:02;;;;;;;3.30;3.00;;;27.10;39.60;;;;;;6144728;23;20377;-84
2022/08/13 16:15:58;;;;;;;3.60;3.30;;;27.10;39.50;;;;;;6145586;23;20407;-83
2022/08/13 16:18:52;;;;;;;;;;;;;;;;;;;;;
2022/08/13 16:21:58;;;;;;;3.53;3.23;;;27.10;39.60;;;;;;6145528;23;20388;-84
2022/08/13 16:25:25;;;;;;;3.40;3.10;;;27.10;39.60;;;;;;6121842;23;20394;-84
2022/08/13 16:27:59;;;;;;;3.40;3.10;;;27.10;39.70;;;;;;6051673;23;20395;-83
2022/08/13 16:34:48;;;;;;;;;;;;;;;;;;;;;
2022/08/13 16:37:31;;;;;;;3.13;2.93;;;27.10;39.70;;;;;;6143864;23;20388;-85
2022/08/13 16:40:13;;;;;;;3.67;3.37;;;27.10;39.80;;;;;;6125283;23;20443;-85
2022/08/13 16:43:10;;;;;;;3.37;3.00;;;27.10;39.80;;;;;;6142874;23;20384;-85
2022/08/13 16:56:30;;;;;;;;;;;;;;;;;;;;;
2022/08/13 16:59:57;;;;;;;;;;;;;;;;;;;;;
2022/08/13 17:11:52;;;;;;;3.77;3.47;;;27.10;40.00;;;;;;6083238;23;20645;-84
2022/08/13 17:14:38;;;;;;;4.20;3.80;;;27.10;40.00;;;;;;5999154;23;20394;-84
2022/08/13 17:20:34;;;;;;;3.77;3.47;;;27.10;40.10;;;;;;6060728;23;20390;-84
2022/08/13 17:33:17;;;;;;;4.27;3.47;;;27.10;40.10;;;;;;6115036;23;20432;-85
2022/08/13 17:36:00;;;;;;;3.43;3.23;;;27.10;40.10;;;;;;6144047;23;20376;-85
2022/08/13 17:39:04;;;;;;;4.00;3.60;;;27.10;40.10;;;;;;6142283;23;20416;-85
2022/08/13 17:45:01;;;;;;;;;;;;;;;;;;;;;
2022/08/13 17:51:05;;;;;;;3.93;3.63;;;27.10;40.10;;;;;;5998089;23;20444;-83
2022/08/13 17:54:07;;;;;;;3.50;3.20;;;27.10;40.10;;;;;;5973484;24;20808;-85
2022/08/13 17:56:59;;;;;;;;;;;;;;;;;;;;;
2022/08/13 17:59:47;;;;;;;;;;;;;;;;;;;;;
2022/08/13 18:02:48;;;;;;;3.70;3.40;;;27.10;40.20;;;;;;5986952;24;20413;-85
2022/08/13 18:05:29;;;;;;;3.53;3.23;;;27.10;40.10;;;;;;5997200;24;20461;-85
2022/08/13 18:08:12;;;;;;;3.33;3.03;;;27.20;40.20;;;;;;5974231;24;20445;-85
2022/08/13 18:11:16;;;;;;;;;;;;;;;;;;;;;
2022/08/13 18:17:38;;;;;;;3.47;3.20;;;27.20;40.20;;;;;;6025805;23;20375;-84
2022/08/13 18:20:26;;;;;;;3.60;3.30;;;27.10;40.20;;;;;;6096325;23;20388;-84
2022/08/13 18:23:05;;;;;;;;;;;;;;;;;;;;;
2022/08/13 18:49:55;;;;;;;4.20;3.80;;;27.10;40.60;;;;;;5966964;23;20684;-83
2022/08/13 18:53:11;;;;;;;3.67;3.37;;;27.10;40.60;;;;;;5966000;24;20386;-83
2022/08/13 18:56:35;;;;;;;;;;;;;;;;;;;;;
2022/08/13 19:10:17;;;;;;;3.37;3.07;;;27.10;40.70;;;;;;5911326;24;20444;-84
2022/08/13 19:33:57;;;;;;;;;;;;;;;;;;;;;
2022/08/13 19:43:59;;;;;;;3.73;3.43;;;27.10;40.90;;;;;;5940836;24;20376;-84
2022/08/13 19:53:59;;;;;;;;;;;;;;;;;;;;;
2022/08/13 20:10:26;;;;;;;3.90;3.60;;;27.10;41.10;;;;;;5780635;24;20383;-84
2022/08/13 20:26:59;;;;;;;;;;;;;;;;;;;;;
2022/08/13 20:46:54;;;;;;;4.57;4.17;;;27.10;41.50;;;;;;5706532;24;20379;-85
2022/08/13 20:59:42;;;;;;;;;;;;;;;;;;;;;
2022/08/13 21:40:08;;;;;;;4.87;4.47;;;27.10;42.00;;;;;;5778523;24;20899;-84
2022/08/13 21:49:56;;;;;;;4.90;4.50;;;27.10;42.00;;;;;;5822414;24;20396;-83
2022/08/13 21:52:57;;;;;;;5.10;4.70;;;27.10;42.20;;;;;;5857361;24;20373;-84
2022/08/13 22:09:17;;;;;;;4.83;4.43;;;27.10;42.30;;;;;;5857635;24;20632;-84
2022/08/13 22:12:08;;;;;;;5.03;4.63;;;27.10;42.30;;;;;;5871702;24;20471;-85
2022/08/13 22:14:55;;;;;;;5.67;5.17;;;27.10;42.30;;;;;;5971154;24;20389;-84
2022/08/13 22:25:24;;;;;;;5.93;5.43;;;27.10;42.30;;;;;;6024439;23;20364;-84
2022/08/13 22:27:55;;;;;;;5.63;5.23;;;27.10;42.40;;;;;;5998220;23;20464;-85
2022/08/13 22:30:52;;;;;;;5.63;5.13;;;27.10;42.40;;;;;;5997502;23;20396;-84
2022/08/13 22:47:22;;;;;;;;;;;;;;;;;;;;;
2022/08/13 22:53:52;;;;;;;5.40;5.00;;;27.10;42.60;;;;;;5999947;24;20385;-86
2022/08/13 22:56:33;;;;;;;;;;;;;;;;;;;;;
2022/08/13 22:59:51;;;;;;;;;;;;;;;;;;;;;
2022/08/13 23:05:56;;;;;;;5.50;5.00;;;27.10;42.70;;;;;;6029421;23;20678;-86
2022/08/13 23:15:22;;;;;;;6.30;5.70;;;27.10;42.70;;;;;;6029432;23;20380;-87
2022/08/13 23:24:36;;;;;;;6.00;5.53;;;27.10;42.60;;;;;;5945991;24;20389;-86
2022/08/13 23:27:26;;;;;;;5.53;5.10;;;27.10;42.70;;;;;;5945002;24;20390;-86
2022/08/13 23:30:37;;;;;;;6.63;5.53;;;27.10;42.70;;;;;;5925755;24;20395;-86
2022/08/13 23:33:11;;;;;;;6.20;5.70;;;27.10;42.70;;;;;;5908348;24;20382;-86
2022/08/13 23:36:04;;;;;;;6.03;5.53;;;27.10;42.80;;;;;;5938722;24;20385;-85
2022/08/13 23:39:10;;;;;;;;;;;;;;;;;;;;;
2022/08/13 23:41:58;;;;;;;6.13;5.63;;;27.10;42.70;;;;;;5996790;24;20377;-85
2022/08/13 23:44:47;;;;;;;6.57;6.00;;;27.10;42.70;;;;;;5976020;24;20729;-85
2022/08/13 23:47:55;;;;;;;6.47;5.97;;;27.10;42.70;;;;;;5999770;24;20384;-85
2022/08/13 23:51:08;;;;;;;;;;;;;;;;;;;;;
2022/08/13 23:53:53;;;;;;;6.03;5.53;;;27.10;42.70;;;;;;6056039;23;20491;-85
